createdAt,value
2019-04-05T00:00:35.714Z,10.93
2019-04-05T00:05:38.500Z,10.86
2019-04-05T00:10:41.195Z,10.94
2019-04-05T00:15:45.113Z,10.85
2019-04-05T00:20:47.798Z,10.86
2019-04-05T00:25:50.517Z,10.83
2019-04-05T00:30:53.302Z,10.73
2019-04-05T00:35:55.987Z,10.78
2019-04-05T00:40:58.683Z,10.80
2019-04-05T00:46:01.385Z,10.73
2019-04-05T00:51:04.185Z,10.80
2019-04-05T00:56:06.892Z,10.82
2019-04-05T01:01:09.569Z,10.70
2019-04-05T01:06:13.555Z,10.63
2019-04-05T01:11:16.508Z,10.66
2019-04-05T01:16:19.281Z,10.75
2019-04-05T01:21:24.372Z,10.72
2019-04-05T01:26:27.963Z,10.70
2019-04-05T01:31:30.637Z,10.63
2019-04-05T01:36:33.319Z,10.67
2019-04-05T01:41:36.316Z,10.76
2019-04-05T01:46:39.594Z,10.81
2019-04-05T01:51:42.857Z,10.77
2019-04-05T01:56:45.542Z,10.74
2019-04-05T02:01:48.626Z,10.75
2019-04-05T02:06:51.411Z,10.72
2019-04-05T02:11:54.305Z,10.75
2019-04-05T02:16:56.988Z,10.69
2019-04-05T02:21:59.700Z,10.52
2019-04-05T02:27:02.380Z,10.63
2019-04-05T02:32:05.070Z,10.69
2019-04-05T02:37:07.751Z,10.73
2019-04-05T02:42:11.765Z,10.66
2019-04-05T02:47:14.760Z,10.69
2019-04-05T02:52:20.457Z,10.70
2019-04-05T02:57:24.651Z,10.62
2019-04-05T03:02:28.754Z,10.46
2019-04-05T03:07:31.429Z,10.32
2019-04-05T03:12:35.241Z,10.34
2019-04-05T03:17:38.332Z,10.36
2019-04-05T03:22:41.025Z,10.35
2019-04-05T03:27:44.315Z,10.23
2019-04-05T03:32:47.741Z,10.32
2019-04-05T03:37:51.015Z,10.36
2019-04-05T03:42:53.807Z,10.41
2019-04-05T03:47:58.233Z,10.32
2019-04-05T03:53:00.932Z,10.35
2019-04-05T03:58:04.011Z,10.18
2019-04-05T04:03:06.798Z,10.15
2019-04-05T04:08:10.084Z,9.99
2019-04-05T04:13:12.789Z,10.09
2019-04-05T04:18:15.958Z,10.00
2019-04-05T04:23:22.447Z,9.98
2019-04-05T04:28:25.647Z,10.11
2019-04-05T04:33:28.899Z,10.00
2019-04-05T04:38:32.011Z,10.07
2019-04-05T04:43:35.381Z,10.01
2019-04-05T04:48:39.258Z,10.11
2019-04-05T04:53:42.475Z,10.17
2019-04-05T04:58:46.386Z,10.14
2019-04-05T05:03:49.586Z,10.16
2019-04-05T05:08:52.691Z,10.29
2019-04-05T05:13:55.582Z,10.37
2019-04-05T05:18:59.021Z,10.38
2019-04-05T05:24:01.718Z,10.43
2019-04-05T05:29:04.828Z,10.33
2019-04-05T05:34:07.925Z,10.37
2019-04-05T05:39:10.716Z,10.24
2019-04-05T05:44:13.434Z,10.30
2019-04-05T05:49:16.155Z,10.41
2019-04-05T05:54:18.849Z,10.48
2019-04-05T05:59:21.596Z,10.51
2019-04-05T06:04:24.299Z,10.60
2019-04-05T06:09:26.985Z,10.68
2019-04-05T06:14:29.670Z,10.64
2019-04-05T06:19:32.386Z,10.59
2019-04-05T06:24:35.094Z,10.53
2019-04-05T06:29:37.811Z,10.70
2019-04-05T06:34:40.512Z,10.81
2019-04-05T06:39:43.277Z,10.81
2019-04-05T06:44:45.955Z,10.73
2019-04-05T06:49:48.664Z,10.96
2019-04-05T06:54:51.369Z,11.00
2019-04-05T06:59:54.082Z,10.97
2019-04-05T07:04:56.897Z,11.00
2019-04-05T07:09:59.590Z,11.11
2019-04-05T07:15:02.344Z,11.10
2019-04-05T07:20:05.207Z,11.10
2019-04-05T07:25:07.892Z,11.13
2019-04-05T07:30:11.204Z,11.28
2019-04-05T07:36:12.333Z,11.22
2019-04-05T07:41:15.043Z,11.28
2019-04-05T07:46:17.733Z,11.16
2019-04-05T07:51:22.663Z,11.25
2019-04-05T07:56:25.341Z,11.26
2019-04-05T08:01:28.040Z,11.18
2019-04-05T08:06:33.350Z,11.07
2019-04-05T08:11:37.765Z,11.02
2019-04-05T08:16:40.622Z,11.02
2019-04-05T08:21:43.318Z,11.08
2019-04-05T08:26:46.027Z,11.16
2019-04-05T08:31:48.738Z,11.19
2019-04-05T08:36:51.438Z,11.25
2019-04-05T08:41:54.135Z,11.23
2019-04-05T08:46:56.831Z,11.21
2019-04-05T08:51:59.529Z,11.38
2019-04-05T08:57:02.225Z,11.63
2019-04-05T09:02:04.927Z,11.65
2019-04-05T09:07:07.629Z,11.89
2019-04-05T09:12:10.362Z,11.93
2019-04-05T09:17:13.064Z,12.11
2019-04-05T09:22:15.780Z,12.11
2019-04-05T09:27:18.485Z,12.07
2019-04-05T09:32:21.190Z,12.07
2019-04-05T09:37:23.884Z,12.04
2019-04-05T09:42:26.582Z,12.08
2019-04-05T09:47:29.280Z,11.96
2019-04-05T09:52:31.973Z,11.97
2019-04-05T09:57:34.672Z,11.96
2019-04-05T10:02:37.375Z,12.10
2019-04-05T10:07:53.885Z,12.18
2019-04-05T10:12:44.758Z,12.22
2019-04-05T10:17:47.440Z,12.16
2019-04-05T10:22:50.137Z,12.30
2019-04-05T10:27:52.842Z,12.36
2019-04-05T10:32:55.521Z,12.35
2019-04-05T10:37:58.577Z,12.45
2019-04-05T10:43:01.418Z,12.38
2019-04-05T10:48:04.124Z,12.34
2019-04-05T10:53:06.965Z,12.40
2019-04-05T10:58:09.837Z,12.52
2019-04-05T11:03:12.538Z,12.51
2019-04-05T11:08:15.238Z,12.49
2019-04-05T11:13:17.934Z,12.59
2019-04-05T11:18:20.630Z,12.57
2019-04-05T11:23:23.318Z,12.39
2019-04-05T11:28:26.010Z,12.26
2019-04-05T11:33:28.843Z,12.35
2019-04-05T11:38:31.534Z,12.24
2019-04-05T11:43:35.136Z,12.24
2019-04-05T11:48:41.095Z,12.29
2019-04-05T11:53:42.762Z,12.31
2019-04-05T11:58:48.792Z,12.27
2019-04-05T12:03:51.750Z,12.39
2019-04-05T12:08:54.441Z,12.41
2019-04-05T12:13:58.735Z,12.46
2019-04-05T12:19:04.490Z,12.46
2019-04-05T12:24:06.038Z,12.42
2019-04-05T12:29:08.814Z,12.43
2019-04-05T12:34:11.511Z,12.47
2019-04-05T12:39:14.207Z,12.64
2019-04-05T12:44:16.894Z,12.83
2019-04-05T12:49:19.698Z,12.82
2019-04-05T12:54:22.407Z,12.89
2019-04-05T12:59:25.928Z,12.89
2019-04-05T13:04:28.803Z,13.19
2019-04-05T13:09:31.499Z,13.33
2019-04-05T13:14:34.309Z,13.24
2019-04-05T13:19:37.007Z,13.33
2019-04-05T13:24:40.390Z,13.36
2019-04-05T13:29:43.310Z,13.35
2019-04-05T13:34:46.007Z,13.18
2019-04-05T13:39:48.697Z,13.07
2019-04-05T13:44:51.391Z,12.99
2019-04-05T13:49:54.093Z,12.93
2019-04-05T13:54:56.789Z,12.81
2019-04-05T13:59:59.502Z,12.76
2019-04-05T14:05:02.204Z,12.86
2019-04-05T14:10:05.747Z,12.84
2019-04-05T14:15:11.240Z,12.76
2019-04-05T14:20:14.140Z,12.70
2019-04-05T14:25:16.939Z,12.81
2019-04-05T14:30:19.643Z,12.72
2019-04-05T14:35:24.517Z,12.84
2019-04-05T14:40:28.874Z,12.86
2019-04-05T14:45:31.515Z,12.84
2019-04-05T14:50:34.211Z,12.72
2019-04-05T14:55:36.905Z,12.66
2019-04-05T15:00:39.619Z,12.56
2019-04-05T15:05:42.410Z,12.61
2019-04-05T15:10:45.106Z,12.64
2019-04-05T15:15:47.798Z,12.60
2019-04-05T15:20:50.486Z,12.62
2019-04-05T15:25:53.220Z,12.58
2019-04-05T15:30:56.593Z,12.62
2019-04-05T15:36:02.952Z,12.57
2019-04-05T15:41:04.029Z,12.51
2019-04-05T15:46:06.747Z,12.44
2019-04-05T15:51:09.762Z,12.45
2019-04-05T15:56:12.562Z,12.47
2019-04-05T16:01:15.830Z,12.37
2019-04-05T16:06:18.520Z,12.26
2019-04-05T16:11:21.233Z,12.34
2019-04-05T16:16:23.935Z,12.26
2019-04-05T16:21:26.640Z,12.23
2019-04-05T16:26:29.387Z,12.22
2019-04-05T16:31:32.087Z,12.32
2019-04-05T16:36:34.874Z,12.39
2019-04-05T16:41:37.565Z,12.44
2019-04-05T16:46:40.262Z,12.45
2019-04-05T16:51:42.972Z,12.42
2019-04-05T16:56:45.661Z,12.23
2019-04-05T17:01:48.487Z,12.10
2019-04-05T17:06:51.176Z,12.07
2019-04-05T17:11:53.904Z,12.03
2019-04-05T17:16:56.623Z,12.00
2019-04-05T17:21:59.322Z,11.94
2019-04-05T17:27:02.054Z,11.85
2019-04-05T17:32:04.742Z,11.65
2019-04-05T17:37:07.441Z,11.64
2019-04-05T17:42:10.131Z,11.56
2019-04-05T17:47:12.819Z,11.56
2019-04-05T17:52:15.912Z,11.45
2019-04-05T17:57:18.909Z,11.26
2019-04-05T18:02:21.608Z,11.35
2019-04-05T18:07:24.313Z,11.39
2019-04-05T18:12:27.021Z,11.42
2019-04-05T18:17:29.738Z,11.40
2019-04-05T18:22:32.423Z,11.47
2019-04-05T18:27:35.124Z,11.46
2019-04-05T18:32:37.836Z,11.43
2019-04-05T18:37:40.541Z,11.50
2019-04-05T18:42:43.261Z,11.63
2019-04-05T18:47:45.964Z,11.70
2019-04-05T18:52:48.663Z,11.80
2019-04-05T18:57:51.367Z,11.87
2019-04-05T19:02:54.094Z,11.95
2019-04-05T19:07:56.872Z,12.03
2019-04-05T19:13:00.475Z,11.98
2019-04-05T19:18:03.338Z,11.67
2019-04-05T19:23:06.137Z,11.81
2019-04-05T19:28:09.695Z,11.78
2019-04-05T19:53:29.169Z,11.71
2019-04-05T19:58:31.862Z,11.70
2019-04-05T20:03:34.588Z,11.60
2019-04-05T20:08:37.358Z,11.64
2019-04-05T20:13:40.105Z,11.66
2019-04-05T20:18:43.002Z,11.71
2019-04-05T20:23:47.714Z,11.59
2019-04-05T20:28:50.300Z,11.58
2019-04-05T20:33:53.129Z,11.54
2019-04-05T20:38:55.830Z,11.68
2019-04-05T20:43:58.531Z,11.77
2019-04-05T20:49:01.223Z,11.82
2019-04-05T20:54:04.592Z,11.76
2019-04-05T20:59:07.484Z,11.69
2019-04-05T21:04:10.177Z,11.68
2019-04-05T21:09:12.881Z,11.68
2019-04-05T21:14:15.573Z,11.51
2019-04-05T21:19:18.269Z,11.45
2019-04-05T21:24:21.191Z,11.53
2019-04-05T21:29:23.876Z,11.27
2019-04-05T21:34:26.697Z,11.21
2019-04-05T21:39:29.587Z,11.10
2019-04-05T21:44:32.261Z,11.09
2019-04-05T21:49:34.962Z,10.91
2019-04-05T21:54:47.131Z,11.05
2019-04-05T21:59:42.257Z,11.01
2019-04-05T22:04:44.965Z,10.80
2019-04-05T22:09:47.665Z,10.80
2019-04-05T22:14:50.361Z,10.76
2019-04-05T22:19:53.067Z,10.69
2019-04-05T22:24:59.480Z,10.76
2019-04-05T22:30:00.368Z,10.76
2019-04-05T22:35:03.245Z,10.48
2019-04-05T22:40:06.436Z,10.69
2019-04-05T22:45:09.943Z,10.80
2019-04-05T22:50:13.137Z,10.80
2019-04-05T22:55:15.833Z,10.68
2019-04-05T23:00:18.567Z,10.66
2019-04-05T23:05:21.260Z,10.55
2019-04-05T23:10:23.952Z,10.71
2019-04-05T23:15:26.640Z,10.82
2019-04-05T23:20:29.342Z,10.83
2019-04-05T23:25:32.059Z,10.91
2019-04-05T23:30:34.754Z,10.80
2019-04-05T23:35:37.444Z,10.98
2019-04-05T23:40:40.165Z,11.07
2019-04-05T23:45:42.857Z,11.15
2019-04-05T23:50:45.548Z,11.22
2019-04-05T23:55:48.244Z,11.20
